createdAt,value
2017-10-13T00:00:42.946Z,6.67
2017-10-13T00:03:09.233Z,7.50
2017-10-13T00:05:35.462Z,7.13
2017-10-13T00:08:01.668Z,7.23
2017-10-13T00:10:27.922Z,7.33
2017-10-13T00:12:54.926Z,6.87
2017-10-13T00:15:21.147Z,7.00
2017-10-13T00:17:47.274Z,6.53
2017-10-13T00:20:13.469Z,7.03
2017-10-13T00:22:39.672Z,6.17
2017-10-13T00:25:05.890Z,6.60
2017-10-13T00:27:32.043Z,6.80
2017-10-13T00:29:58.972Z,6.83
2017-10-13T00:32:25.175Z,7.13
2017-10-13T00:34:51.410Z,7.30
2017-10-13T00:37:17.626Z,7.10
2017-10-13T00:39:43.802Z,7.00
2017-10-13T00:42:09.999Z,6.90
2017-10-13T00:44:36.146Z,6.33
2017-10-13T00:47:02.396Z,6.47
2017-10-13T00:49:28.566Z,6.50
2017-10-13T00:51:54.827Z,6.50
2017-10-13T00:54:21.031Z,6.40
2017-10-13T00:56:47.255Z,7.20
2017-10-13T00:59:13.418Z,6.90
2017-10-13T01:01:40.343Z,6.13
2017-10-13T01:04:07.319Z,6.33
2017-10-13T01:06:33.672Z,7.00
2017-10-13T01:08:59.984Z,6.77
2017-10-13T01:11:26.277Z,8.70
2017-10-13T01:13:52.479Z,7.47
2017-10-13T01:16:18.745Z,7.67
2017-10-13T01:18:45.035Z,7.00
2017-10-13T01:21:11.231Z,7.37
2017-10-13T01:23:37.506Z,7.60
2017-10-13T01:26:04.741Z,7.60
2017-10-13T01:28:31.714Z,7.60
2017-10-13T01:30:58.051Z,7.50
2017-10-13T01:33:24.372Z,7.47
2017-10-13T01:35:50.612Z,6.80
2017-10-13T01:38:17.613Z,7.10
2017-10-13T01:40:43.820Z,7.40
2017-10-13T01:43:10.039Z,9.50
2017-10-13T01:45:36.275Z,7.93
2017-10-13T01:48:03.305Z,8.27
2017-10-13T01:50:29.496Z,7.60
2017-10-13T01:52:55.691Z,6.50
2017-10-13T01:55:21.839Z,7.13
2017-10-13T01:57:47.982Z,7.17
2017-10-13T02:00:14.187Z,7.50
2017-10-13T02:02:40.552Z,7.27
2017-10-13T02:05:06.779Z,7.53
2017-10-13T02:07:33.024Z,7.83
2017-10-13T02:09:59.226Z,7.90
2017-10-13T02:12:26.128Z,8.33
2017-10-13T02:14:52.470Z,8.50
2017-10-13T02:17:19.467Z,7.77
2017-10-13T02:19:45.663Z,8.23
2017-10-13T02:22:11.911Z,7.27
2017-10-13T02:24:38.106Z,6.83
2017-10-13T02:27:04.346Z,7.50
2017-10-13T02:29:30.550Z,7.90
2017-10-13T02:31:56.749Z,7.57
2017-10-13T02:34:22.990Z,7.13
2017-10-13T02:36:49.972Z,7.03
2017-10-13T02:39:16.188Z,7.10
2017-10-13T02:41:43.170Z,6.30
2017-10-13T02:44:10.189Z,7.57
2017-10-13T02:46:36.386Z,7.00
2017-10-13T02:49:02.600Z,7.40
2017-10-13T02:51:28.845Z,8.40
2017-10-13T02:53:55.096Z,8.27
2017-10-13T02:56:21.293Z,8.00
2017-10-13T02:58:47.527Z,7.60
2017-10-13T03:01:14.557Z,6.97
2017-10-13T03:03:40.740Z,8.73
2017-10-13T03:06:06.937Z,7.63
2017-10-13T03:08:33.922Z,8.13
2017-10-13T03:11:00.119Z,7.90
2017-10-13T03:13:26.319Z,8.03
2017-10-13T03:15:52.551Z,7.53
2017-10-13T03:18:18.796Z,9.00
2017-10-13T03:20:45.030Z,8.23
2017-10-13T03:23:12.055Z,10.00
2017-10-13T03:25:38.244Z,7.10
2017-10-13T03:28:04.455Z,8.20
2017-10-13T03:30:30.656Z,7.83
2017-10-13T03:32:56.909Z,8.03
2017-10-13T03:35:23.087Z,8.50
2017-10-13T03:37:49.295Z,8.43
2017-10-13T03:40:15.560Z,8.93
2017-10-13T03:42:41.828Z,9.47
2017-10-13T03:45:08.084Z,8.53
2017-10-13T03:47:34.381Z,8.50
2017-10-13T03:50:00.636Z,9.13
2017-10-13T03:52:26.845Z,7.77
2017-10-13T03:54:53.109Z,8.40
2017-10-13T03:57:19.327Z,8.27
2017-10-13T03:59:45.589Z,8.80
2017-10-13T04:02:11.859Z,9.30
2017-10-13T04:04:38.192Z,9.93
2017-10-13T04:07:04.474Z,9.30
2017-10-13T04:09:30.657Z,9.57
2017-10-13T04:11:56.913Z,8.80
2017-10-13T04:14:23.104Z,8.30
2017-10-13T04:16:49.305Z,8.30
2017-10-13T04:19:15.586Z,9.40
2017-10-13T04:21:42.545Z,10.20
2017-10-13T04:24:08.753Z,9.00
2017-10-13T04:26:34.928Z,9.53
2017-10-13T04:29:01.128Z,8.60
2017-10-13T04:31:27.345Z,9.20
2017-10-13T04:33:53.568Z,9.17
2017-10-13T04:36:19.777Z,10.37
2017-10-13T04:38:45.941Z,10.33
2017-10-13T04:41:12.436Z,8.87
2017-10-13T04:43:39.377Z,9.83
2017-10-13T04:46:05.617Z,9.37
2017-10-13T04:48:31.770Z,10.47
2017-10-13T04:50:57.962Z,9.87
2017-10-13T04:53:24.115Z,11.90
2017-10-13T04:55:51.523Z,10.70
2017-10-13T04:58:18.509Z,11.47
2017-10-13T05:00:44.737Z,10.60
2017-10-13T05:03:10.945Z,11.07
2017-10-13T05:05:37.179Z,10.80
2017-10-13T05:08:03.359Z,11.17
2017-10-13T05:10:29.628Z,10.27
2017-10-13T05:12:55.844Z,10.43
2017-10-13T05:15:22.108Z,10.97
2017-10-13T05:17:48.441Z,11.07
2017-10-13T05:20:14.705Z,9.77
2017-10-13T05:22:40.919Z,9.83
2017-10-13T05:25:07.148Z,9.77
2017-10-13T05:27:33.521Z,9.90
2017-10-13T05:29:59.783Z,11.07
2017-10-13T05:32:26.038Z,12.70
2017-10-13T05:34:53.112Z,11.13
2017-10-13T05:37:19.368Z,11.37
2017-10-13T05:39:46.325Z,10.10
2017-10-13T05:42:12.754Z,9.70
2017-10-13T05:44:38.972Z,11.40
2017-10-13T05:47:05.278Z,13.20
2017-10-13T05:49:31.457Z,12.37
2017-10-13T05:51:57.807Z,11.27
2017-10-13T05:54:23.972Z,10.50
2017-10-13T05:56:51.166Z,9.93
2017-10-13T05:59:17.361Z,9.90
2017-10-13T06:01:44.516Z,10.10
2017-10-13T06:04:10.749Z,10.37
2017-10-13T06:06:36.975Z,11.93
2017-10-13T06:09:03.370Z,12.93
2017-10-13T06:11:30.148Z,13.23
2017-10-13T06:13:56.457Z,12.10
2017-10-13T06:16:22.748Z,14.90
2017-10-13T06:18:49.029Z,13.77
2017-10-13T06:21:15.271Z,16.00
2017-10-13T06:23:41.589Z,14.97
2017-10-13T06:26:07.813Z,14.50
2017-10-13T06:28:34.943Z,14.23
2017-10-13T06:31:01.919Z,14.07
2017-10-13T06:33:28.172Z,12.70
2017-10-13T06:35:54.398Z,12.47
2017-10-13T06:38:21.020Z,13.83
2017-10-13T06:40:47.987Z,11.97
2017-10-13T06:43:14.221Z,14.33
2017-10-13T06:45:40.469Z,13.23
2017-10-13T06:48:07.027Z,13.20
2017-10-13T06:50:33.248Z,14.00
2017-10-13T06:52:59.506Z,14.03
2017-10-13T06:55:25.732Z,16.80
2017-10-13T06:57:51.907Z,17.10
2017-10-13T07:00:18.151Z,18.23
2017-10-13T07:02:44.456Z,17.63
2017-10-13T07:05:10.686Z,19.57
2017-10-13T07:07:37.026Z,21.43
2017-10-13T07:10:03.222Z,21.27
2017-10-13T07:12:29.515Z,19.60
2017-10-13T07:14:55.806Z,18.90
2017-10-13T07:17:22.068Z,21.40
2017-10-13T07:19:49.048Z,22.87
2017-10-13T07:22:15.431Z,20.17
2017-10-13T07:24:41.679Z,20.70
2017-10-13T07:27:07.905Z,22.13
2017-10-13T07:29:34.162Z,22.93
2017-10-13T07:32:00.364Z,22.07
2017-10-13T07:34:26.603Z,20.57
2017-10-13T07:36:52.796Z,21.83
2017-10-13T07:39:19.000Z,21.37
2017-10-13T07:41:45.203Z,21.87
2017-10-13T07:44:11.528Z,19.87
2017-10-13T07:46:37.752Z,19.57
2017-10-13T07:49:04.017Z,19.33
2017-10-13T07:51:30.180Z,19.67
2017-10-13T07:53:56.431Z,21.53
2017-10-13T07:56:22.703Z,20.17
2017-10-13T07:58:48.922Z,17.90
2017-10-13T08:01:15.187Z,18.50
2017-10-13T08:03:41.513Z,19.67
2017-10-13T08:06:07.684Z,19.53
2017-10-13T08:08:34.660Z,18.20
2017-10-13T08:11:00.877Z,20.57
2017-10-13T08:13:27.102Z,18.93
2017-10-13T08:15:53.329Z,18.60
2017-10-13T08:18:19.557Z,18.73
2017-10-13T08:20:45.834Z,17.20
2017-10-13T08:23:12.163Z,18.67
2017-10-13T08:25:38.445Z,17.70
2017-10-13T08:28:04.733Z,16.50
2017-10-13T08:30:31.032Z,17.23
2017-10-13T08:32:57.555Z,16.90
2017-10-13T08:35:24.554Z,15.83
2017-10-13T08:37:50.986Z,16.43
2017-10-13T08:40:17.213Z,15.80
2017-10-13T08:42:43.508Z,15.83
2017-10-13T08:45:09.708Z,15.73
2017-10-13T08:47:35.934Z,14.80
2017-10-13T08:50:02.275Z,15.77
2017-10-13T08:52:29.251Z,14.80
2017-10-13T08:54:55.428Z,14.33
2017-10-13T08:57:21.687Z,13.00
2017-10-13T08:59:48.000Z,14.37
2017-10-13T09:02:14.223Z,13.03
2017-10-13T09:04:41.273Z,13.67
2017-10-13T09:07:07.539Z,12.23
2017-10-13T09:09:33.828Z,13.50
2017-10-13T09:12:00.157Z,14.00
2017-10-13T09:14:26.443Z,12.90
2017-10-13T09:16:52.621Z,13.67
2017-10-13T09:19:20.922Z,14.63
2017-10-13T09:21:52.030Z,12.67
2017-10-13T09:24:18.263Z,14.00
2017-10-13T09:26:44.471Z,14.00
2017-10-13T09:29:10.670Z,13.30
2017-10-13T09:31:36.927Z,13.37
2017-10-13T09:34:03.932Z,13.70
2017-10-13T09:36:30.250Z,14.47
2017-10-13T09:38:56.466Z,12.60
2017-10-13T09:41:22.718Z,13.23
2017-10-13T09:43:48.892Z,13.40
2017-10-13T09:46:15.135Z,13.80
2017-10-13T09:48:42.136Z,14.40
2017-10-13T09:51:08.389Z,12.00
2017-10-13T09:53:35.376Z,13.20
2017-10-13T09:56:01.577Z,12.93
2017-10-13T09:58:27.800Z,13.30
2017-10-13T10:00:54.020Z,12.27
2017-10-13T10:03:20.286Z,12.13
2017-10-13T10:05:46.505Z,12.03
2017-10-13T10:08:13.319Z,13.43
2017-10-13T10:10:39.594Z,12.83
2017-10-13T10:13:05.763Z,12.27
2017-10-13T10:15:31.985Z,12.90
2017-10-13T10:17:58.192Z,13.40
2017-10-13T10:20:24.406Z,13.30
2017-10-13T10:22:50.744Z,12.87
2017-10-13T10:25:17.527Z,12.40
2017-10-13T10:27:44.618Z,12.60
2017-10-13T10:30:10.819Z,19.50
2017-10-13T10:32:37.047Z,12.37
2017-10-13T10:35:05.643Z,12.60
2017-10-13T10:37:31.900Z,12.67
2017-10-13T10:39:58.274Z,11.07
2017-10-13T10:42:24.513Z,12.13
2017-10-13T10:44:50.712Z,12.40
2017-10-13T10:47:17.691Z,11.83
2017-10-13T10:49:43.922Z,11.33
2017-10-13T10:52:10.430Z,12.90
2017-10-13T10:54:36.650Z,12.90
2017-10-13T10:57:03.262Z,12.87
2017-10-13T10:59:29.496Z,11.67
2017-10-13T11:01:55.681Z,11.90
2017-10-13T11:04:21.892Z,12.17
2017-10-13T11:06:48.129Z,13.00
2017-10-13T11:09:14.387Z,11.67
2017-10-13T11:11:40.624Z,10.57
2017-10-13T11:14:06.862Z,11.80
2017-10-13T11:16:33.009Z,10.83
2017-10-13T11:19:00.199Z,12.20
2017-10-13T11:21:26.408Z,11.57
2017-10-13T11:23:52.696Z,12.30
2017-10-13T11:26:19.185Z,12.30
2017-10-13T11:36:18.875Z,16.20
2017-10-13T11:38:45.105Z,11.87
2017-10-13T11:41:12.082Z,11.60
2017-10-13T11:43:38.336Z,12.00
2017-10-13T11:46:04.578Z,9.93
2017-10-13T11:48:30.848Z,11.10
2017-10-13T11:50:57.098Z,10.03
2017-10-13T11:53:24.075Z,10.50
2017-10-13T11:55:50.550Z,10.50
2017-10-13T11:58:16.805Z,10.97
2017-10-13T12:00:43.043Z,11.73
2017-10-13T12:03:09.300Z,9.57
2017-10-13T12:05:35.515Z,10.60
2017-10-13T12:08:01.864Z,9.67
2017-10-13T12:10:28.083Z,9.60
2017-10-13T12:12:54.309Z,9.90
2017-10-13T12:15:20.535Z,9.50
2017-10-13T12:17:46.745Z,10.77
2017-10-13T12:20:13.160Z,9.47
2017-10-13T12:22:39.377Z,9.93
2017-10-13T12:25:05.639Z,9.23
2017-10-13T12:27:31.875Z,9.03
2017-10-13T12:29:58.077Z,8.00
2017-10-13T12:32:24.263Z,8.53
2017-10-13T12:34:51.231Z,9.53
2017-10-13T12:37:17.537Z,8.77
2017-10-13T12:39:43.761Z,8.67
2017-10-13T12:42:09.934Z,8.10
2017-10-13T12:44:36.128Z,8.33
2017-10-13T12:47:03.220Z,7.40
2017-10-13T12:52:00.395Z,7.73
2017-10-13T12:54:26.709Z,6.87
2017-10-13T12:56:52.900Z,7.10
2017-10-13T12:59:19.230Z,6.40
2017-10-13T13:01:45.420Z,6.47
2017-10-13T13:04:11.668Z,6.10
2017-10-13T13:06:37.994Z,5.87
2017-10-13T13:09:04.922Z,6.47
2017-10-13T13:11:31.898Z,7.10
2017-10-13T13:13:58.112Z,7.03
2017-10-13T13:16:24.295Z,6.83
2017-10-13T13:18:50.557Z,6.80
2017-10-13T13:21:16.727Z,6.80
2017-10-13T13:23:42.921Z,6.20
2017-10-13T13:26:09.872Z,7.07
2017-10-13T13:28:36.039Z,6.70
2017-10-13T13:31:02.337Z,6.17
2017-10-13T13:33:28.589Z,6.40
2017-10-13T13:35:54.796Z,6.70
2017-10-13T13:38:20.977Z,6.47
2017-10-13T13:40:47.231Z,6.20
2017-10-13T13:43:13.588Z,5.70
2017-10-13T13:45:49.155Z,6.80
2017-10-13T13:48:15.400Z,6.37
2017-10-13T13:50:41.663Z,6.00
2017-10-13T13:53:08.019Z,6.10
2017-10-13T13:55:34.339Z,7.30
2017-10-13T13:58:01.444Z,6.37
2017-10-13T14:00:27.691Z,6.50
2017-10-13T14:02:54.675Z,6.20
2017-10-13T14:05:20.893Z,6.67
2017-10-13T14:07:47.107Z,7.13
2017-10-13T14:10:13.322Z,6.40
2017-10-13T14:12:39.628Z,6.90
2017-10-13T14:15:05.860Z,6.00
2017-10-13T14:17:32.094Z,6.10
2017-10-13T14:19:58.402Z,6.87
2017-10-13T14:24:56.343Z,8.13
2017-10-13T14:27:22.704Z,6.07
2017-10-13T14:29:48.978Z,6.63
2017-10-13T14:32:15.161Z,8.10
2017-10-13T14:34:41.389Z,6.63
2017-10-13T14:37:07.627Z,8.07
2017-10-13T14:39:33.889Z,7.07
2017-10-13T14:42:00.127Z,6.83
2017-10-13T14:44:26.674Z,7.27
2017-10-13T14:46:52.938Z,7.80
2017-10-13T14:49:19.186Z,6.57
2017-10-13T14:51:45.387Z,7.07
2017-10-13T14:54:11.572Z,7.60
2017-10-13T14:56:37.859Z,8.10
2017-10-13T14:59:04.811Z,6.70
2017-10-13T15:01:31.086Z,7.20
2017-10-13T15:03:57.343Z,6.27
2017-10-13T15:06:23.591Z,6.00
2017-10-13T15:08:49.818Z,6.37
2017-10-13T15:11:16.027Z,6.70
2017-10-13T15:13:42.274Z,5.93
2017-10-13T15:16:09.254Z,5.50
2017-10-13T15:18:35.473Z,5.90
2017-10-13T15:21:01.689Z,5.87
2017-10-13T15:23:27.940Z,5.90
2017-10-13T15:25:54.896Z,5.40
2017-10-13T15:28:27.085Z,5.27
2017-10-13T15:31:11.868Z,5.40
2017-10-13T15:33:44.229Z,5.50
2017-10-13T15:36:17.447Z,5.53
2017-10-13T15:38:49.730Z,6.17
2017-10-13T15:41:22.260Z,6.93
2017-10-13T15:43:54.480Z,6.10
2017-10-13T15:49:40.643Z,6.90
2017-10-13T15:52:12.926Z,6.83
2017-10-13T15:54:39.099Z,6.40
2017-10-13T15:57:05.286Z,8.20
2017-10-13T15:59:31.464Z,8.27
2017-10-13T16:01:58.418Z,7.37
2017-10-13T16:04:24.613Z,5.80
2017-10-13T16:06:50.823Z,6.57
2017-10-13T16:09:17.096Z,6.23
2017-10-13T16:11:43.323Z,7.07
2017-10-13T16:14:09.514Z,6.33
2017-10-13T16:16:35.688Z,7.90
2017-10-13T16:19:01.902Z,6.70
2017-10-13T16:21:28.050Z,7.63
2017-10-13T16:23:54.209Z,6.63
2017-10-13T16:26:20.399Z,6.67
2017-10-13T16:28:47.416Z,7.03
2017-10-13T16:31:13.661Z,8.00
2017-10-13T16:33:40.045Z,7.33
2017-10-13T16:36:06.260Z,7.47
2017-10-13T16:38:32.525Z,8.20
2017-10-13T16:40:58.834Z,7.63
2017-10-13T16:43:25.074Z,9.10
2017-10-13T16:45:51.334Z,9.33
2017-10-13T16:48:17.671Z,7.97
2017-10-13T16:50:43.945Z,8.93
2017-10-13T16:53:10.138Z,7.50
2017-10-13T16:55:36.410Z,7.67
2017-10-13T16:58:02.687Z,7.57
2017-10-13T17:00:28.937Z,7.87
2017-10-13T17:02:55.915Z,8.30
2017-10-13T17:05:22.124Z,8.03
2017-10-13T17:07:48.299Z,8.20
2017-10-13T17:10:14.545Z,8.40
2017-10-13T17:12:40.807Z,7.70
2017-10-13T17:15:07.776Z,9.80
2017-10-13T17:17:34.036Z,7.27
2017-10-13T17:20:00.996Z,7.53
2017-10-13T17:22:27.160Z,8.87
2017-10-13T17:24:53.409Z,7.73
2017-10-13T17:27:20.386Z,20.40
2017-10-13T17:29:46.577Z,10.70
2017-10-13T17:32:12.790Z,10.23
2017-10-13T17:34:39.107Z,11.63
2017-10-13T17:37:05.354Z,9.80
2017-10-13T17:39:31.590Z,8.60
2017-10-13T17:41:58.730Z,14.10
2017-10-13T17:44:24.939Z,10.60
2017-10-13T17:46:51.191Z,7.07
2017-10-13T17:49:17.389Z,7.63
2017-10-13T17:51:43.610Z,8.90
2017-10-13T17:54:09.783Z,8.23
2017-10-13T17:56:35.994Z,10.20
2017-10-13T17:59:02.224Z,11.13
2017-10-13T18:01:28.442Z,13.00
2017-10-13T18:03:54.589Z,16.43
2017-10-13T18:06:21.526Z,9.70
2017-10-13T18:08:48.411Z,8.70
2017-10-13T18:11:14.576Z,8.60
2017-10-13T18:13:40.758Z,8.87
2017-10-13T18:16:07.112Z,9.53
2017-10-13T18:18:33.341Z,9.80
2017-10-13T18:20:59.524Z,9.33
2017-10-13T18:23:27.110Z,8.00
2017-10-13T18:25:54.052Z,7.57
2017-10-13T18:28:20.288Z,8.17
2017-10-13T18:30:46.508Z,9.53
2017-10-13T18:33:13.512Z,10.30
2017-10-13T18:35:39.795Z,9.87
2017-10-13T18:38:06.032Z,8.37
2017-10-13T18:40:32.291Z,9.27
2017-10-13T18:42:59.197Z,8.70
2017-10-13T18:45:25.386Z,17.00
2017-10-13T18:47:51.573Z,9.20
2017-10-13T18:50:17.903Z,10.63
2017-10-13T18:52:44.167Z,10.50
2017-10-13T18:55:14.709Z,8.50
2017-10-13T18:57:41.239Z,8.10
2017-10-13T19:00:07.505Z,10.27
2017-10-13T19:02:33.791Z,7.77
2017-10-13T19:05:00.057Z,8.23
2017-10-13T19:07:26.981Z,8.50
2017-10-13T19:09:54.087Z,8.10
2017-10-13T19:12:20.306Z,8.27
2017-10-13T19:14:46.502Z,8.70
2017-10-13T19:17:13.025Z,7.80
2017-10-13T19:19:39.236Z,9.47
2017-10-13T19:22:05.448Z,8.50
2017-10-13T19:24:31.638Z,7.70
2017-10-13T19:26:58.233Z,8.67
2017-10-13T19:29:24.475Z,9.37
2017-10-13T19:31:50.677Z,8.30
2017-10-13T19:34:16.889Z,8.80
2017-10-13T19:36:43.063Z,9.73
2017-10-13T19:39:10.371Z,8.93
2017-10-13T19:41:36.759Z,9.20
2017-10-13T19:44:02.922Z,9.07
2017-10-13T19:46:29.113Z,8.10
2017-10-13T19:48:55.596Z,8.97
2017-10-13T19:51:22.039Z,9.17
2017-10-13T19:53:48.336Z,8.27
2017-10-13T19:56:14.624Z,8.33
2017-10-13T19:58:40.828Z,8.80
2017-10-13T20:01:08.752Z,9.80
2017-10-13T20:03:35.177Z,9.40
2017-10-13T20:06:02.307Z,8.97
2017-10-13T20:08:29.545Z,10.83
2017-10-13T20:10:55.897Z,9.00
2017-10-13T20:13:22.144Z,10.20
2017-10-13T20:15:49.048Z,8.80
2017-10-13T20:18:15.264Z,10.53
2017-10-13T20:20:41.597Z,9.77
2017-10-13T20:23:07.760Z,9.37
2017-10-13T20:25:33.946Z,9.23
2017-10-13T20:28:01.374Z,7.90
2017-10-13T20:30:27.640Z,8.67
2017-10-13T20:32:54.339Z,9.50
2017-10-13T20:35:22.047Z,9.33
2017-10-13T20:37:48.327Z,8.80
2017-10-13T20:40:14.775Z,8.90
2017-10-13T20:42:41.259Z,8.53
2017-10-13T20:45:07.535Z,9.00
2017-10-13T20:47:33.898Z,8.63
2017-10-13T20:50:00.110Z,9.00
2017-10-13T20:52:27.315Z,8.77
2017-10-13T20:54:54.540Z,7.87
2017-10-13T20:57:20.763Z,8.80
2017-10-13T20:59:46.907Z,9.20
2017-10-13T21:02:13.429Z,10.30
2017-10-13T21:04:39.745Z,10.43
2017-10-13T21:07:06.676Z,10.80
2017-10-13T21:09:32.879Z,10.23
2017-10-13T21:11:59.128Z,9.90
2017-10-13T21:14:25.308Z,10.20
2017-10-13T21:16:51.518Z,10.43
2017-10-13T21:19:17.684Z,9.27
2017-10-13T21:21:43.952Z,9.50
2017-10-13T21:24:10.119Z,9.70
2017-10-13T21:26:36.287Z,10.30
2017-10-13T21:29:02.515Z,10.70
2017-10-13T21:31:28.770Z,9.60
2017-10-13T21:33:54.930Z,14.97
2017-10-13T21:36:21.199Z,19.40
2017-10-13T21:38:47.425Z,26.73
2017-10-13T21:41:13.699Z,29.03
2017-10-13T21:43:40.552Z,19.20
2017-10-13T21:46:20.278Z,16.07
2017-10-13T21:48:46.725Z,11.57
2017-10-13T21:51:13.262Z,11.23
2017-10-13T21:53:39.760Z,10.40
2017-10-13T21:56:06.179Z,9.70
2017-10-13T21:58:35.061Z,10.10
2017-10-13T22:01:01.546Z,10.03
2017-10-13T22:03:27.850Z,10.77
2017-10-13T22:05:54.942Z,10.53
2017-10-13T22:08:21.352Z,10.50
2017-10-13T22:10:48.419Z,9.47
2017-10-13T22:13:14.963Z,10.17
2017-10-13T22:15:41.349Z,11.07
2017-10-13T22:18:07.717Z,9.93
2017-10-13T22:20:34.102Z,10.27
2017-10-13T22:23:00.512Z,11.87
2017-10-13T22:25:26.878Z,10.50
2017-10-13T22:27:53.340Z,11.00
2017-10-13T22:30:19.840Z,12.77
2017-10-13T22:32:46.172Z,10.47
2017-10-13T22:35:12.498Z,10.50
2017-10-13T22:37:38.795Z,9.70
2017-10-13T22:40:05.157Z,11.50
2017-10-13T22:42:32.509Z,10.30
2017-10-13T22:44:58.942Z,9.20
2017-10-13T22:47:25.500Z,10.43
2017-10-13T22:49:52.818Z,10.30
2017-10-13T22:52:19.175Z,10.70
2017-10-13T22:54:45.548Z,9.70
2017-10-13T22:57:12.646Z,11.10
2017-10-13T22:59:39.076Z,10.40
2017-10-13T23:02:06.190Z,10.87
2017-10-13T23:04:32.536Z,10.27
2017-10-13T23:06:59.810Z,9.80
2017-10-13T23:09:26.347Z,9.20
2017-10-13T23:11:52.788Z,9.43
2017-10-13T23:14:19.148Z,8.37
2017-10-13T23:16:46.278Z,9.20
2017-10-13T23:19:12.679Z,8.43
2017-10-13T23:21:39.782Z,8.13
2017-10-13T23:24:06.166Z,9.03
2017-10-13T23:26:32.508Z,8.63
2017-10-13T23:28:58.988Z,9.70
2017-10-13T23:31:25.463Z,10.10
2017-10-13T23:33:51.786Z,9.30
2017-10-13T23:36:18.171Z,8.57
2017-10-13T23:38:44.697Z,8.17
2017-10-13T23:41:11.073Z,8.67
2017-10-13T23:43:37.504Z,9.40
2017-10-13T23:46:03.939Z,9.27
2017-10-13T23:48:30.777Z,9.40
2017-10-13T23:50:57.115Z,8.67
2017-10-13T23:53:23.452Z,8.37
2017-10-13T23:55:49.918Z,8.60
2017-10-13T23:58:16.367Z,8.73
